Werte bis 5 Uhr SommerzeitDiagramme Weilburger Grenze: Tagesdaten MonatsdatenCSV-Datei: Giessen21.csv

Wetterdaten 2021 Station: Weilburger Grenze
Temperaturen in °C relative Nieder- Global- Wind Wind Wind- Sonnen-
Datum Boden Boden Luft Luft Luft Luft Feuchte schlag strahlung max richtung schein
20 cm 5 cm 20 cm 2 m 2 m max 2 m min % mm W/m2*d m/s m/s ° h

26.10.2021 9,1 8,7 9,1 9,9 16,7 5,6 89 0,0 2033 0,9 7,0 --- ---
25.10.2021 9,0 7,4 3,9 4,1 13,0 -1,9 95 0,4 1400 0,5 4,3 --- ---
24.10.2021 9,7 8,2 4,8 4,7 14,1 0,2 89 0,0 2760 1,3 7,2 --- ---
23.10.2021 10,2 9,0 5,6 6,1 12,1 0,9 91 0,0 1533 0,7 3,4 --- ---
22.10.2021 10,8 9,4 6,5 7,2 11,2 2,8 85 1,0 1976 1,6 9,0 --- ---
21.10.2021 11,3 11,4 11,1 11,8 16,1 4,2 80 4,7 1982 3,4 17,3 --- ---
20.10.2021 10,7 10,2 10,9 11,8 17,6 5,0 95 0,5 689 1,1 7,9 --- ---
19.10.2021 10,6 9,7 8,4 9,0 13,0 5,4 99 1,4 407 1,1 4,5 --- ---
18.10.2021 10,8 9,5 5,5 5,8 10,6 1,0 96 0,0 850 0,9 5,8 --- ---
17.10.2021 11,1 10,3 8,1 7,7 14,4 3,3 86 0,0 2582 0,7 4,5 --- ---
16.10.2021 11,3 10,2 6,6 6,1 14,7 2,2 90 0,1 2453 0,6 3,0 --- ---
15.10.2021 11,7 11,0 8,3 9,2 13,4 3,8 92 0,0 908 0,9 5,2 --- ---
14.10.2021 11,5 11,0 10,5 10,9 13,8 8,7 90 0,0 703 1,1 5,0 --- ---
13.10.2021 11,4 10,2 6,8 7,3 11,4 1,9 92 0,2 1746 1,0 6,4 --- ---
12.10.2021 11,7 10,8 8,6 9,3 12,8 3,1 93 1,3 874 1,2 5,9 --- ---
11.10.2021 11,6 10,5 6,8 7,1 14,7 1,4 91 0,0 1341 1,4 5,7 --- ---
10.10.2021 12,5 11,3 7,0 6,9 16,0 0,2 84 0,0 2703 0,4 3,4 --- ---
09.10.2021 13,3 12,4 9,7 10,4 17,8 4,9 82 0,0 2893 0,8 5,6 --- ---
08.10.2021 13,7 12,9 10,0 10,5 17,3 4,5 88 0,0 2230 1,3 4,8 --- ---
07.10.2021 14,2 13,7 11,1 11,2 16,9 6,9 91 0,0 2267 0,9 5,2 --- ---
06.10.2021 14,4 13,7 11,1 11,4 13,9 9,1 87 0,8 1564 1,7 10,3 --- ---
05.10.2021 14,5 14,0 12,3 12,4 16,6 9,2 92 3,2 1756 1,8 9,1 --- ---
04.10.2021 14,7 14,4 12,4 12,8 16,5 9,3 88 0,0 1508 1,1 6,9 --- ---
03.10.2021 14,7 14,5 17,0 18,2 22,0 13,3 69 0,4 381 3,3 14,4 --- ---
02.10.2021 14,2 13,7 13,8 14,3 19,9 7,2 80 0,4 1696 1,8 10,2 --- ---
01.10.2021 14,4 13,2 10,8 10,9 18,9 3,6 77 0,0 3756 1,3 8,8 --- ---
30.09.2021 15,1 13,8 9,6 9,7 16,5 3,3 80 0,0 3473 0,7 7,5 --- ---
29.09.2021 16,1 15,3 11,4 11,4 17,8 6,5 87 2,1 2433 1,3 12,2 --- ---
28.09.2021 16,7 16,5 13,7 13,4 19,0 9,6 85 0,1 3429 1,0 4,3 --- ---
27.09.2021 16,7 17,0 16,7 16,9 21,6 13,0 89 1,1 1830 1,4 9,5 --- ---
26.09.2021 16,4 16,6 17,1 17,2 23,4 11,3 90 0,5 2432 0,7 5,1 --- ---
25.09.2021 16,2 16,1 15,5 15,0 24,6 7,8 83 0,0 4147 0,7 5,1 --- ---
24.09.2021 16,1 16,4 17,1 17,3 21,8 11,5 77 0,1 2555 1,4 7,0 --- ---
23.09.2021 15,5 15,1 14,1 13,7 23,2 5,5 79 0,0 3998 1,3 8,8 --- ---
22.09.2021 15,9 15,1 12,3 11,7 20,9 4,5 83 0,0 4292 0,7 5,1 --- ---
21.09.2021 16,1 15,4 11,2 10,9 17,9 4,6 78 0,0 3194 0,9 4,7 --- ---
20.09.2021 16,9 16,2 12,9 12,6 15,7 10,3 72 0,0 2021 1,6 5,0 --- ---
19.09.2021 17,4 16,8 13,7 13,7 16,9 10,8 82 0,0 1887 1,7 7,2 --- ---
18.09.2021 17,6 17,5 15,1 14,7 22,5 10,4 86 0,0 3431 0,8 4,0 --- ---
17.09.2021 17,9 17,5 14,0 14,0 20,4 8,5 90 0,0 2378 0,7 5,2 --- ---
16.09.2021 18,5 18,7 16,2 16,3 18,8 12,2 84 0,0 1926 1,1 6,4 --- ---
15.09.2021 18,3 18,9 18,6 18,9 22,2 16,0 94 2,5 1500 0,9 5,7 --- ---
14.09.2021 17,9 18,1 18,1 18,0 26,1 10,9 82 0,0 4227 0,6 4,5 --- ---
13.09.2021 18,1 17,8 16,5 15,7 23,8 8,6 81 0,0 4852 0,8 4,2 --- ---
12.09.2021 18,5 18,6 17,7 17,1 23,2 12,3 82 0,0 4493 1,1 6,7 --- ---
11.09.2021 18,4 19,0 19,1 18,6 23,7 14,3 89 0,7 3029 0,8 5,2 --- ---
10.09.2021 18,2 18,8 19,3 19,4 23,3 16,7 91 4,3 1609 0,5 6,1 --- ---
09.09.2021 17,7 18,0 19,2 19,8 28,8 12,0 77 0,0 4412 1,4 7,0 --- ---
08.09.2021 17,7 17,8 17,9 18,8 27,5 11,7 73 0,0 5289 1,3 7,5 --- ---
07.09.2021 17,7 17,9 17,8 17,9 25,5 11,6 76 0,2 4155 0,9 4,6 --- ---
06.09.2021 17,5 17,6 17,7 18,4 27,8 9,5 75 0,0 5160 0,6 4,6 --- ---
05.09.2021 17,4 17,5 17,2 17,9 26,6 11,0 76 0,0 5576 1,2 4,8 --- ---
04.09.2021 17,3 17,3 17,2 17,9 25,9 9,7 77 0,0 5505 1,2 6,9 --- ---
03.09.2021 17,1 17,1 16,9 17,5 26,4 10,0 77 0,0 5709 0,7 6,2 --- ---
02.09.2021 17,2 16,8 15,5 15,8 24,3 7,8 81 0,0 5285 1,0 5,5 --- ---
01.09.2021 17,5 17,2 15,3 14,6 21,3 8,2 83 0,0 3910 0,7 4,8 --- ---
31.08.2021 17,8 17,8 16,3 16,5 22,5 10,5 77 0,0 3980 1,2 6,9 --- ---
30.08.2021 17,9 18,0 16,8 17,5 19,6 15,6 80 0,0 1845 2,1 8,3 --- ---
29.08.2021 17,9 17,8 15,9 15,4 17,7 14,0 95 7,4 1279 0,8 4,5 --- ---
28.08.2021 18,0 17,7 15,3 14,4 19,5 9,5 86 1,5 3048 0,7 4,3 --- ---
27.08.2021 18,3 18,1 15,0 14,8 19,3 11,5 83 0,1 2689 1,8 7,1 --- ---
26.08.2021 18,4 18,5 16,6 16,8 21,3 13,4 74 0,0 3998 1,7 6,7 --- ---
25.08.2021 18,3 18,0 16,2 16,3 24,2 9,0 71 0,0 6388 1,3 6,4 --- ---
24.08.2021 18,8 18,4 15,1 15,3 21,9 9,5 78 0,0 4957 1,5 7,3 --- ---
23.08.2021 18,9 18,7 18,2 17,5 23,6 12,6 86 0,0 3453 1,3 8,0 --- ---
22.08.2021 19,2 19,3 19,0 18,6 23,6 15,3 86 7,9 2575 1,7 11,6 --- ---
21.08.2021 19,1 19,4 19,1 19,4 26,9 12,0 78 0,0 5365 0,8 5,4 --- ---
20.08.2021 19,1 19,3 18,0 17,4 23,2 13,1 84 0,0 3911 0,9 5,7 --- ---
19.08.2021 19,1 19,2 18,1 18,1 21,8 14,8 84 0,0 2041 1,0 6,7 --- ---
18.08.2021 19,0 19,0 16,9 16,3 19,9 13,4 90 0,7 2551 1,4 7,2 --- ---
17.08.2021 19,5 19,0 14,4 14,0 17,5 11,0 85 2,4 2207 1,6 8,1 --- ---
16.08.2021 20,1 20,1 16,2 16,7 21,5 11,2 80 3,0 2749 1,7 12,1 --- ---
15.08.2021 20,1 20,6 19,1 20,0 28,2 11,3 72 0,0 5971 0,8 6,4 --- ---
14.08.2021 20,0 20,6 19,9 21,0 30,0 12,7 73 0,0 6619 1,0 6,6 --- ---
13.08.2021 19,7 20,4 20,7 21,5 30,3 14,1 78 0,0 5623 1,0 7,1 --- ---
12.08.2021 19,3 19,8 19,9 20,5 28,4 13,1 79 0,0 5307 0,7 7,2 --- ---
11.08.2021 19,0 19,4 19,0 18,6 26,5 13,5 84 0,1 5213 0,6 4,2 --- ---
10.08.2021 18,8 18,7 16,7 16,4 24,3 9,8 87 6,2 4397 0,8 8,3 --- ---
09.08.2021 19,2 18,9 15,4 16,0 23,8 9,1 80 0,0 3736 1,0 9,1 --- ---
08.08.2021 19,7 19,7 16,0 15,9 21,9 11,3 84 3,5 4511 1,5 9,1 --- ---
07.08.2021 19,9 19,9 17,4 17,6 23,4 12,7 82 7,4 3106 1,7 10,1 --- ---
06.08.2021 20,0 20,2 18,2 18,3 23,8 13,5 83 5,3 3865 1,4 13,1 --- ---
05.08.2021 19,9 20,2 18,8 17,9 24,6 12,9 83 5,8 5241 0,8 8,2 --- ---
04.08.2021 19,7 19,8 18,5 17,3 23,2 13,3 83 2,8 4568 0,9 7,3 --- ---
03.08.2021 20,0 19,7 16,2 15,1 21,0 11,2 92 7,4 2693 0,8 5,9 --- ---
02.08.2021 20,4 20,5 17,5 16,5 21,7 13,2 86 5,0 3815 1,2 6,2 --- ---
01.08.2021 20,4 20,7 18,6 17,8 24,0 13,0 74 0,0 5872 1,4 8,4 --- ---
31.07.2021 20,5 20,7 17,6 18,4 22,8 13,0 65 0,0 5806 1,7 10,5 --- ---
30.07.2021 20,4 20,7 18,9 19,4 27,7 10,0 68 0,0 6587 1,2 9,5 --- ---
29.07.2021 20,6 21,0 18,5 18,7 23,5 13,3 68 0,0 5376 1,5 9,6 --- ---
28.07.2021 20,6 20,7 18,8 18,9 24,7 12,9 81 0,7 4785 1,6 9,9 --- ---
27.07.2021 21,0 21,1 19,0 18,6 24,8 13,7 85 28,2 3676 0,9 8,4 --- ---
26.07.2021 20,9 21,6 20,7 20,1 27,4 14,1 80 0,0 5698 0,9 8,1 --- ---
25.07.2021 20,7 21,3 20,6 19,7 28,2 13,6 83 0,0 4941 0,8 5,4 --- ---
24.07.2021 20,7 21,1 19,3 19,7 26,0 15,0 80 1,1 3731 1,1 6,1 --- ---
23.07.2021 20,6 21,1 20,2 19,9 28,2 11,7 72 0,0 6265 0,6 4,7 --- ---
22.07.2021 20,7 21,0 19,2 18,9 25,4 11,7 73 0,0 4572 0,5 4,1 --- ---
21.07.2021 20,8 21,0 18,8 17,9 24,9 9,6 68 0,0 7595 1,1 6,1 --- ---
20.07.2021 21,0 21,4 19,0 17,8 24,6 11,1 70 0,0 7195 1,1 8,6 --- ---
19.07.2021 21,2 22,0 19,4 18,8 23,9 14,1 75 0,0 6103 1,5 6,7 --- ---
18.07.2021 20,9 22,0 21,5 21,3 28,9 11,7 70 0,0 7772 1,2 7,0 --- ---
17.07.2021 20,5 21,8 22,6 22,2 27,9 17,5 72 0,0 6953 1,3 7,5 --- ---
16.07.2021 20,2 20,7 19,6 19,0 23,8 14,8 87 0,0 3021 0,7 6,0 --- ---
15.07.2021 20,1 20,7 20,1 19,0 25,6 15,2 83 4,8 4556 0,3 7,6 --- ---
14.07.2021 20,4 20,6 17,2 17,1 17,9 16,3 93 4,6 1084 1,5 5,9 --- ---
13.07.2021 20,5 21,2 20,0 19,5 24,0 17,5 90 5,6 2834 0,9 6,8 --- ---
12.07.2021 20,1 21,0 20,2 19,5 26,5 13,2 80 0,1 5382 0,9 8,1 --- ---
11.07.2021 19,9 20,5 18,8 17,8 22,5 15,0 90 11,4 3712 0,7 5,8 --- ---
10.07.2021 19,8 20,1 19,2 18,4 25,7 12,9 83 0,0 3447 0,5 4,0 --- ---
09.07.2021 20,0 20,2 17,8 17,5 22,0 14,6 90 1,5 2090 0,4 5,4 --- ---
08.07.2021 20,2 20,6 18,1 17,7 25,6 13,0 87 7,7 2927 0,5 7,4 --- ---
07.07.2021 20,0 20,7 20,0 19,3 26,2 13,6 76 0,0 6170 1,1 7,9 --- ---
06.07.2021 20,2 20,4 17,7 18,0 20,9 14,6 90 5,4 2124 1,0 8,5 --- ---
05.07.2021 20,4 20,6 17,9 17,5 21,8 12,1 90 5,6 3100 1,2 6,9 --- ---
04.07.2021 20,7 21,3 19,1 18,6 25,4 15,5 87 11,3 3584 0,7 10,7 --- ---
03.07.2021 20,1 21,0 20,1 19,2 27,7 9,9 70 0,0 7469 0,8 5,2 --- ---
02.07.2021 19,9 20,2 17,8 17,0 23,6 12,7 77 2,8 5624 1,0 7,6 --- ---
01.07.2021 20,8 20,3 14,6 14,6 16,1 13,0 89 3,1 1235 1,2 7,0 --- ---
30.06.2021 21,4 21,7 17,7 17,1 21,3 14,3 87 1,2 4190 0,9 7,0 --- ---
29.06.2021 21,8 22,8 20,4 19,8 26,7 15,8 87 7,1 3506 1,2 11,0 --- ---
28.06.2021 21,4 22,9 23,7 22,9 30,1 15,9 72 0,0 6021 1,0 6,1 --- ---
27.06.2021 20,9 22,0 21,9 21,4 28,7 13,9 71 0,0 5975 1,0 5,5 --- ---
26.06.2021 20,6 21,3 19,8 18,8 26,7 11,0 74 0,0 6298 0,6 4,6 --- ---
25.06.2021 20,6 21,3 19,0 18,3 22,8 13,4 80 1,3 5018 0,8 6,8 --- ---
24.06.2021 21,0 21,0 17,7 17,4 20,2 14,4 88 7,7 2359 1,0 4,9 --- ---
23.06.2021 21,1 21,5 19,2 18,1 23,9 12,3 82 0,0 4835 1,4 5,1 --- ---
22.06.2021 22,2 21,8 16,4 15,9 20,1 13,6 82 6,3 2744 2,0 7,6 --- ---
21.06.2021 23,1 24,2 21,5 20,7 26,2 16,5 77 3,3 6061 2,4 9,5 --- ---
20.06.2021 23,3 25,1 25,0 24,1 29,0 20,2 70 2,3 6581 1,4 8,6 --- ---
19.06.2021 22,8 25,2 26,9 25,9 32,8 18,8 68 0,9 7862 1,0 5,3 --- ---
18.06.2021 22,1 24,3 26,6 25,9 33,9 17,6 66 0,0 7172 0,9 6,1 --- ---
17.06.2021 21,4 23,5 25,8 25,2 33,3 16,2 65 0,0 7927 1,5 7,3 --- ---
16.06.2021 20,8 22,7 23,9 23,0 31,0 14,6 67 0,0 7416 1,2 5,9 --- ---
15.06.2021 20,3 21,8 21,6 20,7 29,0 11,0 71 0,0 6343 1,0 6,2 --- ---
14.06.2021 19,8 21,2 20,1 19,1 28,2 9,7 65 0,0 8402 1,2 7,2 --- ---
13.06.2021 19,7 20,7 18,3 17,0 25,2 8,7 64 0,0 8416 0,8 5,8 --- ---
12.06.2021 20,1 21,3 19,0 18,9 24,1 13,0 73 0,0 5779 1,6 11,0 --- ---
11.06.2021 19,7 21,8 22,0 21,6 29,0 12,7 68 0,0 7555 0,9 8,6 --- ---
10.06.2021 19,0 20,9 21,9 21,1 28,0 13,1 73 0,0 6682 0,6 6,9 --- ---
09.06.2021 18,3 19,7 21,6 20,7 28,1 14,6 76 0,6 7073 0,7 5,3 --- ---
08.06.2021 17,9 18,9 19,7 19,6 24,8 14,1 77 0,0 5054 1,0 5,0 --- ---
07.06.2021 18,0 18,6 17,5 17,7 21,2 15,6 82 0,9 2155 1,3 5,6 --- ---
06.06.2021 18,5 19,4 18,0 17,9 20,1 15,9 83 0,0 1731 1,4 5,1 --- ---
05.06.2021 18,1 19,8 20,7 19,6 24,8 15,3 85 0,0 5960 1,2 6,7 --- ---
04.06.2021 17,4 19,2 20,6 19,8 27,7 14,9 87 3,5 5625 0,6 5,4 --- ---
03.06.2021 16,8 18,1 18,9 18,8 27,3 9,6 76 1,7 5193 1,0 6,5 --- ---
02.06.2021 16,2 17,6 18,2 18,2 26,7 8,9 63 0,0 8003 1,2 7,7 --- ---
01.06.2021 15,7 16,8 17,3 16,9 25,6 7,5 61 0,0 8146 1,2 5,8 --- ---
31.05.2021 15,3 16,4 16,7 16,0 23,5 7,7 63 0,0 7933 1,2 6,4 --- ---
30.05.2021 14,9 15,8 14,8 14,1 22,0 4,9 69 0,0 7376 1,5 6,9 --- ---
29.05.2021 14,6 15,6 14,9 14,1 20,4 6,1 69 0,0 7596 1,4 7,2 --- ---
28.05.2021 14,1 14,9 14,7 13,5 19,2 7,7 71 0,0 6358 1,0 7,1 --- ---
27.05.2021 13,9 14,1 11,4 10,7 14,3 5,9 87 2,2 2985 1,7 7,3 --- ---
26.05.2021 14,1 14,2 11,2 9,8 14,5 5,5 91 10,3 3033 1,4 6,9 --- ---
25.05.2021 14,4 14,7 10,5 9,6 13,5 8,1 85 12,8 3322 2,4 12,2 --- ---
24.05.2021 14,3 14,8 12,3 11,9 20,0 3,6 77 0,1 5496 1,9 10,5 --- ---
23.05.2021 14,4 14,7 11,8 10,9 17,3 4,3 76 0,0 5510 1,3 12,2 --- ---
22.05.2021 14,6 15,2 12,0 11,1 16,6 6,8 80 12,6 4412 2,3 22,9 --- ---
21.05.2021 14,5 15,5 14,0 14,2 18,4 11,1 61 0,0 5150 2,6 13,8 --- ---
20.05.2021 14,0 15,0 14,4 12,8 17,7 8,4 73 0,0 5468 1,7 11,3 --- ---
19.05.2021 13,4 13,9 12,4 10,1 17,6 3,3 81 0,0 5806 1,2 8,1 --- ---
18.05.2021 13,6 13,8 10,9 10,0 14,6 5,2 89 10,2 4043 1,2 8,8 --- ---
17.05.2021 13,7 13,7 11,6 10,7 16,0 7,2 89 12,3 3879 1,1 9,1 --- ---
16.05.2021 14,1 14,4 11,9 11,2 17,3 7,4 85 19,2 4182 1,6 15,3 --- ---
15.05.2021 14,4 14,9 11,8 11,1 15,9 7,0 84 0,2 2835 1,6 9,6 --- ---
14.05.2021 14,3 15,7 14,6 13,5 19,0 8,0 73 0,1 6192 1,4 7,8 --- ---
13.05.2021 13,7 15,0 14,5 13,5 19,5 8,6 76 0,0 5197 1,0 7,4 --- ---
12.05.2021 13,4 14,4 14,0 13,7 17,4 10,6 78 0,0 3065 1,3 6,3 --- ---
11.05.2021 13,0 14,1 14,3 14,2 17,9 11,6 93 7,0 2339 0,7 5,1 --- ---
10.05.2021 12,7 14,0 14,6 15,9 21,5 12,9 81 3,7 1542 1,0 6,5 --- ---
09.05.2021 11,4 13,0 16,2 17,4 27,4 5,8 62 0,0 6867 1,9 12,1 --- ---
08.05.2021 10,7 10,8 9,1 8,8 15,9 -1,5 69 0,0 5411 1,6 8,6 --- ---
07.05.2021 10,8 11,0 7,2 6,8 11,7 1,4 78 1,9 4681 1,7 8,3 --- ---
06.05.2021 10,6 10,6 7,0 6,8 13,4 1,8 82 7,0 4041 1,5 9,1 --- ---
05.05.2021 10,7 10,2 5,8 5,9 11,7 0,8 81 5,9 4585 1,7 13,3 --- ---
04.05.2021 11,3 10,9 9,3 10,4 15,6 5,1 66 1,2 1692 3,5 20,9 --- ---
03.05.2021 11,2 11,1 7,7 7,6 14,6 -1,3 64 0,0 5904 1,3 9,0 --- ---
02.05.2021 11,9 11,8 7,6 8,1 11,9 3,0 63 0,0 2426 1,8 8,7 --- ---
01.05.2021 11,9 12,5 10,8 10,2 15,0 3,7 68 0,0 4290 1,1 6,2 --- ---
30.04.2021 11,8 12,0 8,8 7,9 14,1 1,7 78 0,0 3506 0,9 6,8 --- ---
29.04.2021 11,9 12,9 10,9 10,9 16,7 4,3 77 5,2 4954 2,0 12,8 --- ---
28.04.2021 11,0 11,8 11,4 11,9 20,8 2,3 58 9,8 6537 1,1 9,2 --- ---
27.04.2021 10,6 10,9 9,4 9,4 17,2 0,7 49 0,0 7133 1,0 5,7 --- ---
26.04.2021 10,6 10,6 7,5 7,4 14,7 -0,9 55 0,0 7275 1,3 7,0 --- ---
25.04.2021 10,7 11,0 7,6 7,4 13,3 1,9 60 0,0 7156 1,8 7,1 --- ---
24.04.2021 10,4 11,0 8,6 8,4 15,5 0,1 66 0,0 6645 1,3 7,5 --- ---
23.04.2021 10,2 10,7 8,2 7,8 16,5 -0,3 67 0,0 6994 0,8 6,2 --- ---
22.04.2021 10,2 10,8 8,9 8,5 14,7 2,4 57 0,0 6590 1,7 10,3 --- ---
21.04.2021 10,0 10,8 9,8 10,1 17,8 2,7 79 1,1 3087 1,1 7,5 --- ---
20.04.2021 9,3 10,3 10,5 10,2 19,2 0,3 71 0,0 6471 0,9 5,5 --- ---
19.04.2021 8,7 9,7 8,9 8,9 14,6 2,8 83 0,3 4252 1,2 7,4 --- ---
18.04.2021 8,0 8,5 8,7 8,5 13,7 5,6 83 12,1 2430 0,2 5,7 --- ---
17.04.2021 7,6 7,6 6,4 6,8 11,0 2,3 64 0,0 2607 0,8 7,1 --- ---
16.04.2021 7,4 7,2 5,5 5,4 9,4 1,0 72 0,0 2196 0,8 8,5 --- ---
15.04.2021 7,3 6,8 3,6 3,6 10,4 -3,2 74 0,0 4741 1,0 8,2 --- ---
14.04.2021 7,5 6,8 3,2 3,1 9,3 -3,0 75 0,0 4330 0,8 8,0 --- ---
13.04.2021 7,9 7,2 2,7 2,7 10,7 -3,3 78 0,0 3792 0,5 7,8 --- ---
12.04.2021 8,3 8,2 4,5 4,1 8,1 -0,7 79 0,4 4355 1,1 9,7 --- ---
11.04.2021 8,3 8,7 7,4 7,6 13,5 3,0 94 14,1 1065 1,0 7,7 --- ---
10.04.2021 7,9 8,4 8,0 8,2 9,9 6,4 94 12,4 1051 0,6 4,5 --- ---
09.04.2021 7,0 7,0 6,3 6,4 15,9 -2,4 66 0,0 4920 0,7 8,1 --- ---
08.04.2021 6,9 6,3 3,4 3,5 9,4 -0,7 71 0,1 3304 1,5 8,0 --- ---
07.04.2021 7,2 6,2 1,3 1,5 4,6 -1,6 86 2,0 2003 2,3 10,1 --- ---
06.04.2021 7,6 6,4 1,3 1,3 5,6 -1,4 86 3,3 3609 2,4 12,3 --- ---
05.04.2021 8,6 7,5 2,2 2,6 6,0 -0,1 82 3,3 1809 1,8 13,7 --- ---
04.04.2021 9,1 8,7 5,1 4,7 11,4 -1,3 73 0,0 4132 0,7 10,5 --- ---
03.04.2021 9,6 9,5 7,1 7,1 12,4 1,3 61 0,0 4857 1,6 7,7 --- ---
02.04.2021 9,5 10,5 9,1 8,5 14,0 5,9 64 0,0 3909 2,2 9,5 --- ---
01.04.2021 9,1 10,5 12,9 13,4 24,0 4,9 65 0,0 3198 1,4 9,6 --- ---
31.03.2021 8,6 8,6 11,9 12,9 24,5 2,7 60 0,0 3198 0,0 5,0 --- ---
30.03.2021 8,1 7,9 10,8 11,5 24,7 1,1 61 0,0 3198 0,0 4,1 --- ---
29.03.2021 7,6 7,3 10,9 11,8 21,8 3,8 62 0,0 3198 0,0 7,7 --- ---
28.03.2021 7,2 7,1 7,1 7,6 14,7 0,0 74 0,0 3198 1,0 10,8 --- ---
27.03.2021 7,7 7,8 5,5 6,1 12,2 0,4 78 4,8 2757 1,9 14,1 --- ---
26.03.2021 7,2 8,2 10,2 10,6 16,3 5,4 73 0,0 3683 1,8 8,6 --- ---
25.03.2021 6,5 6,9 7,3 7,8 16,4 -0,6 77 0,0 3589 0,9 5,8 --- ---
24.03.2021 6,1 6,2 5,8 5,8 15,3 -2,7 79 0,0 4914 0,9 5,9 --- ---
23.03.2021 6,1 6,5 5,7 6,0 11,1 -0,3 77 0,0 2105 0,6 5,6 --- ---
22.03.2021 5,7 5,8 5,8 5,9 9,4 3,8 73 0,0 1514 0,9 5,7 --- ---
21.03.2021 5,6 5,7 5,7 6,0 9,6 3,5 68 0,0 2316 1,6 10,6 --- ---
20.03.2021 5,0 4,8 3,9 3,1 7,9 -1,2 57 0,0 4510 0,7 5,4 --- ---
19.03.2021 5,3 4,8 2,2 2,4 6,9 -0,8 82 0,2 2774 1,7 9,9 --- ---
18.03.2021 5,1 4,6 2,6 2,2 8,2 -3,1 82 4,3 3634 0,5 8,0 --- ---
17.03.2021 5,5 5,0 2,0 2,5 5,9 -2,5 82 0,2 1344 0,7 7,3 --- ---
16.03.2021 5,7 5,5 4,7 5,3 10,0 1,6 77 0,0 2472 1,9 7,8 --- ---
15.03.2021 5,5 5,6 4,8 5,1 9,8 1,9 84 2,3 2869 2,0 10,3 --- ---
14.03.2021 5,5 5,3 3,9 4,4 8,1 1,6 86 1,3 1782 1,5 8,3 --- ---
13.03.2021 5,8 5,9 5,9 6,7 10,0 4,1 79 6,9 1241 3,2 15,5 --- ---
12.03.2021 5,5 5,9 7,1 7,4 11,1 4,8 71 1,4 2845 2,7 13,7 --- ---
11.03.2021 4,9 5,6 8,2 9,0 14,2 6,0 78 8,2 1540 3,3 12,7 --- ---
10.03.2021 4,1 4,4 5,9 6,3 9,2 2,4 80 0,0 1723 1,5 10,1 --- ---
09.03.2021 3,5 3,1 2,6 2,8 5,8 -1,1 90 0,0 1252 0,5 6,0 --- ---
08.03.2021 3,4 2,6 1,0 1,1 7,3 -4,0 83 0,0 1631 0,2 4,1 --- ---
07.03.2021 3,6 2,3 1,5 1,1 9,9 -6,2 72 0,0 4298 0,3 5,5 --- ---
06.03.2021 4,3 2,9 0,8 0,6 8,1 -6,1 71 0,0 4136 0,4 5,1 --- ---
05.03.2021 5,1 4,9 2,3 2,8 6,2 -2,4 76 0,1 2183 1,6 8,5 --- ---
04.03.2021 4,6 4,9 5,7 6,1 11,7 1,7 89 4,5 1330 1,0 7,2 --- ---
03.03.2021 4,3 3,9 4,1 4,5 13,4 -2,0 87 0,0 2748 0,6 4,4 --- ---
02.03.2021 4,3 4,0 4,4 4,9 15,4 -0,3 85 0,0 3438 1,2 6,5 --- ---
01.03.2021 4,2 3,9 4,1 4,7 10,7 0,2 89 0,0 2978 1,9 6,6 --- ---
28.02.2021 4,1 4,0 5,5 5,9 11,9 -0,1 77 0,0 3589 1,6 6,1 --- ---
27.02.2021 4,0 3,4 3,3 3,2 9,5 -3,1 88 0,0 3054 1,2 6,3 --- ---
26.02.2021 4,4 4,3 3,3 4,3 9,5 0,1 96 4,4 756 0,7 6,5 --- ---
25.02.2021 4,1 4,4 7,0 8,0 17,6 0,3 84 0,0 3019 0,7 4,9 --- ---
24.02.2021 3,5 4,1 7,3 8,5 17,6 1,2 87 0,0 2775 0,7 5,6 --- ---
23.02.2021 2,5 3,1 7,5 8,2 17,4 2,0 85 0,0 2646 0,9 5,0 --- ---
22.02.2021 1,9 1,6 3,1 4,3 10,8 -1,6 90 0,0 2360 1,1 5,6 --- ---
21.02.2021 1,4 1,3 4,7 6,3 17,3 -1,0 83 0,0 3094 1,2 6,8 --- ---
20.02.2021 1,1 0,4 4,1 5,4 15,6 -1,1 89 0,0 2556 0,9 7,5 --- ---
19.02.2021 1,0 0,1 3,3 4,7 10,5 -0,5 89 1,2 2102 1,0 9,9 --- ---
18.02.2021 1,0 0,0 2,4 3,7 9,6 -1,0 90 0,1 1484 0,8 8,0 --- ---
17.02.2021 1,0 0,0 3,2 4,8 10,6 0,9 93 3,0 1270 0,5 7,5 --- ---
16.02.2021 1,1 0,0 1,8 2,8 8,4 0,4 93 0,0 1668 0,6 5,8 --- ---
15.02.2021 1,2 -0,1 -3,3 -2,7 0,7 -8,2 80 1,9 731 1,7 8,4 --- ---
14.02.2021 1,3 0,0 -6,3 -6,6 3,2 -13,0 78 0,0 3128 0,2 4,3 --- ---
13.02.2021 1,5 0,2 -6,8 -6,6 -1,0 -11,0 78 0,0 2950 1,0 5,8 --- ---
12.02.2021 1,6 0,3 -6,2 -6,5 -1,6 -9,5 80 0,0 2635 1,6 7,9 --- ---
11.02.2021 1,8 0,4 -4,3 -4,2 0,3 -8,4 79 0,0 2044 0,4 5,0 --- ---
10.02.2021 2,1 0,5 -9,4 -9,5 -3,5 -13,9 84 0,0 2455 1,5 8,2 --- ---
09.02.2021 2,5 0,8 -8,6 -8,9 -5,9 -12,7 81 0,0 1774 0,7 5,2 --- ---
08.02.2021 3,1 1,3 -6,3 -6,4 -5,3 -8,0 86 0,1 817 2,7 7,3 --- ---
07.02.2021 4,2 2,7 -2,2 -2,1 0,7 -5,4 94 4,8 173 2,9 8,2 --- ---
06.02.2021 4,8 4,6 3,1 3,6 6,1 0,6 97 9,8 210 2,2 8,1 --- ---
05.02.2021 4,8 4,3 3,7 4,3 6,2 2,1 98 12,6 266 0,6 3,4 --- ---
04.02.2021 4,9 5,2 6,0 6,9 11,2 2,2 85 1,6 1558 1,4 8,2 --- ---
03.02.2021 4,2 4,4 6,5 7,9 11,4 4,2 97 8,2 419 1,0 6,9 --- ---
02.02.2021 3,5 3,5 4,5 5,3 7,6 3,4 99 6,8 332 0,9 5,6 --- ---
01.02.2021 3,3 2,5 1,6 1,9 3,5 0,4 99 6,3 331 0,0 3,5 --- ---
31.01.2021 3,7 2,4 -0,3 -0,1 1,9 -2,6 84 0,3 1041 1,4 6,2 --- ---
30.01.2021 4,3 4,2 2,8 3,3 8,3 0,5 87 1,8 562 2,1 8,9 --- ---
29.01.2021 3,6 3,9 5,6 6,3 10,9 3,1 94 23,7 648 1,4 12,2 --- ---
28.01.2021 3,0 2,7 3,2 3,6 5,6 2,2 99 16,2 335 1,4 5,6 --- ---
27.01.2021 2,9 1,8 0,1 0,8 2,8 -1,4 97 0,5 440 1,3 7,7 --- ---
26.01.2021 3,1 2,2 1,1 1,8 3,9 -0,5 93 1,0 670 1,2 7,2 --- ---
25.01.2021 3,4 2,4 -0,3 0,0 2,1 -1,3 96 0,6 507 0,1 2,6 --- ---
24.01.2021 3,9 3,1 0,9 1,4 3,6 -0,3 95 6,9 814 1,5 8,0 --- ---
23.01.2021 4,1 3,6 2,4 2,8 5,0 0,5 96 0,1 558 1,5 6,0 --- ---
22.01.2021 4,1 4,5 5,0 5,7 10,7 1,5 90 3,7 458 2,3 15,9 --- ---
21.01.2021 3,3 3,4 6,7 7,9 11,3 5,3 75 1,4 559 3,7 13,8 --- ---
20.01.2021 2,9 2,4 2,8 4,1 8,8 -0,7 83 0,0 829 1,3 7,4 --- ---
19.01.2021 2,8 2,4 3,2 4,0 5,7 1,9 89 3,2 220 3,2 10,1 --- ---
18.01.2021 2,3 1,8 2,0 2,9 4,6 0,7 93 0,3 560 0,9 6,0 --- ---
17.01.2021 2,2 1,1 -0,8 -0,8 0,7 -2,3 96 1,3 475 0,7 3,9 --- ---
16.01.2021 2,2 1,1 -0,8 -0,4 0,8 -1,5 72 0,0 440 1,1 5,7 --- ---
15.01.2021 2,5 1,1 -0,4 0,5 1,7 -2,6 82 0,0 323 0,5 6,5 --- ---
14.01.2021 2,7 1,7 0,6 1,3 3,9 -1,0 78 0,0 792 0,5 8,0 --- ---
13.01.2021 2,7 1,5 0,7 1,7 4,8 -0,7 89 0,6 712 1,1 8,4 --- ---
12.01.2021 2,7 1,9 1,9 2,7 4,7 0,1 93 2,2 453 2,6 9,4 --- ---
11.01.2021 2,9 1,2 -1,5 -1,3 2,8 -4,9 90 0,0 880 1,4 8,0 --- ---
10.01.2021 3,3 2,2 -0,3 0,0 2,6 -2,9 93 0,0 702 0,1 2,3 --- ---
09.01.2021 3,5 2,5 0,5 0,8 2,9 -0,4 90 0,0 457 0,1 2,9 --- ---
08.01.2021 3,6 2,7 0,9 1,4 2,9 0,2 96 2,4 619 0,5 4,0 --- ---
07.01.2021 3,7 2,8 1,0 1,4 2,5 0,8 90 0,6 346 0,7 4,8 --- ---
06.01.2021 3,7 2,9 2,0 2,6 3,9 1,0 91 0,4 338 0,5 5,3 --- ---
05.01.2021 3,7 2,8 1,4 1,9 2,5 1,0 93 1,9 163 2,1 7,5 --- ---
04.01.2021 3,8 2,8 1,0 1,5 2,0 0,9 94 0,1 98 1,2 6,3 --- ---
03.01.2021 4,0 2,9 1,6 2,2 3,1 1,1 85 0,0 230 1,6 8,5 --- ---
02.01.2021 4,1 3,1 0,9 1,1 2,8 -0,6 98 0,0 440 0,1 3,0 --- ---
01.01.2021 4,3 3,3 1,3 1,6 3,0 0,5 99 3,3 285 0,0 2,8 --- ---

Mittelwerte (Temperaturen, Strahlung, rel. Feuchte, Wind), Summe (Regen) für 2021
12,3 12,3 11,0 11,0 81 562 3.416 1,2

Landesbetrieb Landwirtschaft Hessen 2009

      Werte bis 5 Uhr SommerzeitCSV-Datei: Giessen21.csvDiagramm: Giessen